Bay Shore, New York
Current Conditions -  °F | °C
As of 6:53 AM on Friday 24 Oct 2014 (Local Time) from KFRG Reporting Station
Broken Clouds Broken Clouds  
Wind Chill: 51°   Ceiling: 4500
Heat Index: 51°   Visibility: 10mi
Dew Point: 44°   Wind: 7mph
Humidity: 77%   Direction: 320°NW
Pressure: 29.78"   Gusts: NA
Location:  40.72°N, 73.25°W
Report Text: KFRG 241053Z 32006KT 10SM BKN045 BKN080 BKN100 11/07 A2978 RMK AO2 SLP085 T01060067
Loading
Personal Weather Stations






























Interactive Weather Map New forecast layout! Learn more

10-Day Weather Forecast

Advertisements
Track Severe Weather on mobile